createdAt,value
2017-08-17T00:02:08.058Z,4.20
2017-08-17T00:04:36.213Z,4.20
2017-08-17T00:07:04.345Z,5.03
2017-08-17T00:09:32.508Z,3.40
2017-08-17T00:12:00.642Z,3.07
2017-08-17T00:14:28.771Z,5.27
2017-08-17T00:16:57.713Z,4.23
2017-08-17T00:19:25.842Z,5.10
2017-08-17T00:21:53.975Z,4.90
2017-08-17T00:24:22.139Z,5.40
2017-08-17T00:26:50.262Z,4.27
2017-08-17T00:29:18.429Z,3.90
2017-08-17T00:31:46.552Z,5.03
2017-08-17T00:34:14.690Z,4.73
2017-08-17T00:36:42.854Z,5.03
2017-08-17T00:39:10.991Z,3.83
2017-08-17T00:41:39.900Z,3.83
2017-08-17T00:44:08.053Z,4.50
2017-08-17T00:46:36.942Z,4.60
2017-08-17T00:49:05.858Z,4.30
2017-08-17T00:51:34.019Z,4.93
2017-08-17T00:54:02.904Z,4.50
2017-08-17T00:56:31.825Z,4.33
2017-08-17T00:58:59.954Z,4.73
2017-08-17T01:01:28.885Z,4.47
2017-08-17T01:03:57.005Z,5.20
2017-08-17T01:06:25.138Z,3.90
2017-08-17T01:08:53.313Z,4.73
2017-08-17T01:11:21.463Z,5.33
2017-08-17T01:13:49.635Z,4.23
2017-08-17T01:16:17.771Z,4.80
2017-08-17T01:18:46.675Z,5.00
2017-08-17T01:21:15.607Z,4.40
2017-08-17T01:23:43.738Z,4.00
2017-08-17T01:26:11.910Z,5.77
2017-08-17T01:28:40.811Z,4.30
2017-08-17T01:31:08.954Z,5.00
2017-08-17T01:33:37.890Z,5.07
2017-08-17T01:36:06.011Z,5.80
2017-08-17T01:38:34.165Z,5.30
2017-08-17T01:41:02.319Z,5.33
2017-08-17T01:43:30.460Z,5.30
2017-08-17T01:45:58.623Z,4.80
2017-08-17T01:48:26.754Z,5.73
2017-08-17T01:50:54.909Z,4.97
2017-08-17T01:53:23.045Z,5.27
2017-08-17T01:55:51.160Z,4.50
2017-08-17T01:58:19.326Z,4.60
2017-08-17T02:00:47.499Z,5.17
2017-08-17T02:03:15.675Z,5.97
2017-08-17T02:05:43.809Z,4.37
2017-08-17T02:08:11.952Z,6.10
2017-08-17T02:10:40.887Z,4.07
2017-08-17T02:13:09.022Z,5.60
2017-08-17T02:15:37.172Z,5.50
2017-08-17T02:18:06.061Z,5.40
2017-08-17T02:20:34.995Z,6.10
2017-08-17T02:23:03.113Z,5.00
2017-08-17T02:25:31.246Z,4.73
2017-08-17T02:27:59.411Z,5.80
2017-08-17T02:30:27.538Z,4.80
2017-08-17T02:32:56.460Z,4.40
2017-08-17T02:35:24.603Z,4.63
2017-08-17T02:37:53.493Z,5.13
2017-08-17T02:40:22.421Z,6.30
2017-08-17T02:42:50.536Z,4.83
2017-08-17T02:45:18.697Z,6.20
2017-08-17T02:47:46.827Z,5.13
2017-08-17T02:50:14.978Z,5.00
2017-08-17T02:52:43.868Z,4.20
2017-08-17T02:55:11.984Z,5.30
2017-08-17T02:57:40.151Z,4.97
2017-08-17T03:00:08.278Z,5.13
2017-08-17T03:02:37.199Z,5.20
2017-08-17T03:05:05.320Z,6.07
2017-08-17T03:07:33.484Z,6.40
2017-08-17T03:10:01.610Z,4.10
2017-08-17T03:12:29.795Z,5.13
2017-08-17T03:14:57.929Z,4.80
2017-08-17T03:17:26.045Z,4.40
2017-08-17T03:19:54.213Z,4.07
2017-08-17T03:22:22.359Z,5.40
2017-08-17T03:24:50.531Z,5.97
2017-08-17T03:27:18.666Z,4.97
2017-08-17T03:29:47.573Z,5.47
2017-08-17T03:32:16.500Z,4.67
2017-08-17T03:34:44.647Z,4.80
2017-08-17T03:37:12.773Z,5.60
2017-08-17T03:39:40.939Z,4.40
2017-08-17T03:42:09.075Z,5.43
2017-08-17T03:44:37.202Z,4.50
2017-08-17T03:47:06.131Z,4.53
2017-08-17T03:49:34.263Z,4.73
2017-08-17T03:52:03.198Z,4.93
2017-08-17T03:54:31.321Z,5.80
2017-08-17T03:56:59.444Z,3.67
2017-08-17T03:59:27.611Z,4.03
2017-08-17T04:01:55.746Z,4.83
2017-08-17T04:04:24.687Z,7.03
2017-08-17T04:06:52.819Z,5.70
2017-08-17T04:09:20.982Z,4.03
2017-08-17T04:11:49.111Z,4.27
2017-08-17T04:14:17.248Z,4.93
2017-08-17T04:16:45.399Z,4.70
2017-08-17T04:19:14.299Z,5.17
2017-08-17T04:21:42.443Z,4.43
2017-08-17T04:24:10.581Z,3.93
2017-08-17T04:26:38.753Z,3.90
2017-08-17T04:29:06.879Z,4.70
2017-08-17T04:31:35.014Z,4.63
2017-08-17T04:34:03.186Z,3.90
2017-08-17T04:36:31.325Z,4.57
2017-08-17T04:38:59.462Z,4.70
2017-08-17T04:41:27.613Z,4.73
2017-08-17T04:43:55.744Z,4.27
2017-08-17T04:46:23.927Z,3.40
2017-08-17T04:48:52.045Z,3.63
2017-08-17T04:51:20.939Z,5.27
2017-08-17T04:53:49.088Z,3.10
2017-08-17T04:59:57.046Z,3.73
2017-08-17T05:02:25.210Z,5.43
2017-08-17T05:04:53.354Z,3.23
2017-08-17T05:07:22.241Z,6.43
2017-08-17T05:09:50.400Z,4.90
2017-08-17T05:12:18.531Z,4.73
2017-08-17T05:14:46.693Z,3.73
2017-08-17T05:17:14.837Z,4.40
2017-08-17T05:19:43.747Z,4.00
2017-08-17T05:22:11.913Z,3.93
2017-08-17T05:24:40.043Z,4.53
2017-08-17T05:27:08.210Z,4.40
2017-08-17T05:29:36.339Z,4.60
2017-08-17T05:32:04.512Z,4.70
2017-08-17T05:34:32.643Z,3.87
2017-08-17T05:37:01.541Z,4.67
2017-08-17T05:39:29.721Z,3.30
2017-08-17T05:41:58.637Z,4.97
2017-08-17T05:44:26.822Z,3.90
2017-08-17T05:46:54.975Z,5.00
2017-08-17T05:49:23.216Z,5.40
2017-08-17T05:51:52.149Z,4.50
2017-08-17T05:54:20.291Z,4.67
2017-08-17T05:56:48.430Z,5.97
2017-08-17T05:59:16.634Z,4.93
2017-08-17T06:01:44.773Z,5.00
2017-08-17T06:04:13.334Z,4.30
2017-08-17T06:06:41.512Z,4.50
2017-08-17T06:09:09.678Z,3.90
2017-08-17T06:11:37.847Z,4.37
2017-08-17T06:14:05.996Z,4.97
2017-08-17T06:16:34.140Z,4.43
2017-08-17T06:19:03.124Z,3.97
2017-08-17T06:21:31.251Z,4.93
2017-08-17T06:23:59.391Z,3.73
2017-08-17T06:26:27.566Z,4.60
2017-08-17T06:28:55.708Z,4.10
2017-08-17T06:31:24.661Z,4.13
2017-08-17T06:33:52.854Z,3.70
2017-08-17T06:36:21.003Z,4.50
2017-08-17T06:38:49.133Z,3.60
2017-08-17T06:41:17.300Z,4.23
2017-08-17T06:43:46.199Z,4.50
2017-08-17T06:46:14.916Z,4.70
2017-08-17T06:48:43.051Z,3.30
2017-08-17T06:51:11.215Z,3.87
2017-08-17T06:53:40.120Z,3.67
2017-08-17T06:56:08.297Z,4.10
2017-08-17T06:58:36.426Z,3.20
2017-08-17T07:01:04.563Z,3.57
2017-08-17T07:03:32.724Z,2.97
2017-08-17T07:06:00.854Z,3.70
2017-08-17T07:08:29.740Z,4.47
2017-08-17T07:10:58.679Z,3.10
2017-08-17T07:13:26.796Z,3.60
2017-08-17T07:15:55.699Z,3.20
2017-08-17T07:18:24.619Z,4.07
2017-08-17T07:20:52.755Z,3.57
2017-08-17T07:23:21.685Z,4.30
2017-08-17T07:25:49.899Z,3.80
2017-08-17T07:28:18.052Z,4.07
2017-08-17T07:30:46.165Z,3.40
2017-08-17T07:33:15.434Z,3.87
2017-08-17T07:35:43.593Z,3.13
2017-08-17T07:38:11.751Z,2.83
2017-08-17T07:40:39.936Z,4.10
2017-08-17T07:43:08.062Z,3.53
2017-08-17T07:45:36.191Z,3.47
2017-08-17T07:48:04.375Z,3.27
2017-08-17T07:50:32.497Z,2.80
2017-08-17T07:53:00.685Z,3.47
2017-08-17T07:55:28.824Z,4.03
2017-08-17T07:57:56.964Z,3.40
2017-08-17T08:00:25.898Z,3.80
2017-08-17T08:02:54.025Z,3.43
2017-08-17T08:05:22.961Z,3.90
2017-08-17T08:07:51.189Z,3.77
2017-08-17T08:10:20.126Z,4.03
2017-08-17T08:12:48.247Z,3.63
2017-08-17T08:15:16.387Z,4.23
2017-08-17T08:17:44.560Z,4.07
2017-08-17T08:20:12.676Z,3.67
2017-08-17T08:22:41.561Z,3.83
2017-08-17T08:25:10.490Z,4.00
2017-08-17T08:27:38.626Z,4.10
2017-08-17T08:30:07.527Z,3.90
2017-08-17T08:32:35.704Z,3.70
2017-08-17T08:35:03.843Z,3.77
2017-08-17T08:37:31.983Z,3.90
2017-08-17T08:40:00.134Z,4.10
2017-08-17T08:42:28.255Z,4.27
2017-08-17T08:44:56.425Z,3.90
2017-08-17T08:47:24.546Z,3.60
2017-08-17T08:49:52.678Z,3.63
2017-08-17T08:52:21.606Z,4.23
2017-08-17T08:54:49.720Z,3.60
2017-08-17T08:57:17.854Z,3.77
2017-08-17T08:59:46.005Z,4.40
2017-08-17T09:02:14.145Z,2.87
2017-08-17T09:04:43.094Z,3.90
2017-08-17T09:07:11.239Z,3.80
2017-08-17T09:09:39.369Z,3.80
2017-08-17T09:12:07.523Z,3.50
2017-08-17T09:14:35.649Z,3.07
2017-08-17T09:17:03.799Z,4.33
2017-08-17T09:19:32.724Z,3.30
2017-08-17T09:22:00.843Z,3.97
2017-08-17T09:24:29.002Z,3.73
2017-08-17T09:26:57.243Z,3.60
2017-08-17T09:29:25.387Z,3.17
2017-08-17T09:31:54.311Z,3.63
2017-08-17T09:34:22.436Z,4.47
2017-08-17T09:36:51.794Z,4.50
2017-08-17T09:39:20.109Z,4.03
2017-08-17T09:41:49.170Z,4.27
2017-08-17T09:44:17.466Z,3.80
2017-08-17T09:46:45.733Z,3.30
2017-08-17T09:49:14.010Z,4.17
2017-08-17T09:51:42.147Z,4.13
2017-08-17T09:54:10.317Z,4.13
2017-08-17T09:56:38.441Z,3.57
2017-08-17T09:59:06.623Z,3.90
2017-08-17T10:01:35.531Z,4.77
2017-08-17T10:04:03.653Z,4.00
2017-08-17T10:06:31.812Z,4.17
2017-08-17T10:08:59.947Z,4.47
2017-08-17T10:11:28.087Z,4.90
2017-08-17T10:13:57.019Z,4.00
2017-08-17T10:16:25.138Z,4.00
2017-08-17T10:18:54.079Z,3.80
2017-08-17T10:21:22.225Z,4.03
2017-08-17T10:23:50.378Z,3.80
2017-08-17T10:26:19.294Z,3.80
2017-08-17T10:28:47.415Z,2.60
2017-08-17T10:31:15.592Z,3.33
2017-08-17T10:33:43.726Z,3.70
2017-08-17T10:36:11.854Z,3.00
2017-08-17T10:38:40.790Z,3.20
2017-08-17T10:41:08.935Z,3.30
2017-08-17T10:43:37.074Z,3.60
2017-08-17T10:46:05.248Z,4.00
2017-08-17T10:48:33.380Z,3.17
2017-08-17T10:51:01.538Z,2.97
2017-08-17T10:53:29.658Z,3.30
2017-08-17T10:55:57.793Z,3.47
2017-08-17T10:58:25.960Z,3.00
2017-08-17T11:00:54.109Z,3.43
2017-08-17T11:03:22.253Z,2.90
2017-08-17T11:05:50.444Z,3.77
2017-08-17T11:08:18.581Z,3.23
2017-08-17T11:10:46.772Z,2.93
2017-08-17T11:13:14.932Z,4.07
2017-08-17T11:15:43.071Z,3.07
2017-08-17T11:18:11.232Z,2.47
2017-08-17T11:20:39.368Z,3.23
2017-08-17T11:23:08.254Z,2.90
2017-08-17T11:25:37.184Z,3.60
2017-08-17T11:28:05.325Z,3.30
2017-08-17T11:30:33.456Z,4.23
2017-08-17T11:33:01.636Z,3.60
2017-08-17T11:35:29.771Z,3.47
2017-08-17T11:37:57.899Z,3.43
2017-08-17T11:40:26.838Z,4.10
2017-08-17T11:42:54.983Z,2.80
2017-08-17T11:45:23.137Z,2.77
2017-08-17T11:47:52.113Z,2.73
2017-08-17T11:50:21.045Z,3.73
2017-08-17T11:52:49.223Z,2.27
2017-08-17T11:55:17.355Z,3.73
2017-08-17T11:57:46.313Z,3.23
2017-08-17T12:00:14.454Z,3.10
2017-08-17T12:02:42.587Z,3.50
2017-08-17T12:05:11.532Z,3.63
2017-08-17T12:07:39.666Z,2.50
2017-08-17T12:10:07.807Z,2.90
2017-08-17T12:12:36.747Z,3.40
2017-08-17T12:15:04.885Z,3.17
2017-08-17T12:17:33.805Z,3.20
2017-08-17T12:20:01.943Z,3.33
2017-08-17T12:22:30.104Z,3.80
2017-08-17T12:24:59.006Z,2.90
2017-08-17T12:27:27.906Z,4.27
2017-08-17T12:29:56.077Z,5.00
2017-08-17T12:32:24.200Z,3.87
2017-08-17T12:34:52.340Z,3.13
2017-08-17T12:37:20.511Z,3.53
2017-08-17T12:39:48.638Z,3.80
2017-08-17T12:42:17.547Z,3.70
2017-08-17T12:44:45.728Z,2.70
2017-08-17T12:47:13.878Z,2.77
2017-08-17T12:49:42.773Z,3.33
2017-08-17T12:52:11.697Z,2.70
2017-08-17T12:54:39.835Z,3.20
2017-08-17T12:57:08.780Z,3.00
2017-08-17T12:59:36.917Z,3.00
2017-08-17T13:02:05.077Z,3.10
2017-08-17T13:04:33.202Z,2.87
2017-08-17T13:07:01.337Z,2.70
2017-08-17T13:09:29.503Z,3.20
2017-08-17T13:11:57.636Z,3.20
2017-08-17T13:14:26.564Z,3.40
2017-08-17T13:16:54.695Z,3.20
2017-08-17T13:19:22.849Z,3.00
2017-08-17T13:21:50.988Z,3.47
2017-08-17T13:24:19.170Z,3.60
2017-08-17T13:26:47.297Z,3.33
2017-08-17T13:29:16.196Z,2.87
2017-08-17T13:31:44.356Z,3.10
2017-08-17T13:34:13.259Z,2.90
2017-08-17T13:36:41.390Z,2.70
2017-08-17T13:39:09.541Z,3.33
2017-08-17T13:41:37.665Z,2.93
2017-08-17T13:44:05.832Z,3.23
2017-08-17T13:46:34.724Z,3.43
2017-08-17T13:49:02.894Z,4.27
2017-08-17T13:51:31.025Z,3.10
2017-08-17T13:53:59.157Z,2.40
2017-08-17T13:56:27.318Z,3.47
2017-08-17T13:58:55.447Z,2.70
2017-08-17T14:01:23.631Z,2.60
2017-08-17T14:03:52.525Z,2.70
2017-08-17T14:06:21.454Z,2.97
2017-08-17T14:08:49.585Z,3.20
2017-08-17T14:11:18.483Z,2.70
2017-08-17T14:13:46.747Z,3.03
2017-08-17T14:16:14.884Z,2.87
2017-08-17T14:18:43.041Z,3.53
2017-08-17T14:21:11.173Z,3.10
2017-08-17T14:23:40.072Z,3.30
2017-08-17T14:26:08.226Z,2.73
2017-08-17T14:28:37.132Z,2.57
2017-08-17T14:31:05.385Z,3.03
2017-08-17T14:33:33.504Z,3.90
2017-08-17T14:36:01.640Z,3.60
2017-08-17T14:38:30.561Z,3.10
2017-08-17T14:40:58.694Z,2.60
2017-08-17T14:43:27.621Z,3.20
2017-08-17T14:45:55.746Z,2.87
2017-08-17T14:48:23.918Z,3.00
2017-08-17T14:50:52.035Z,3.13
2017-08-17T14:53:20.159Z,3.10
2017-08-17T14:55:48.329Z,2.57
2017-08-17T14:58:16.475Z,3.30
2017-08-17T15:00:44.687Z,2.83
2017-08-17T15:03:12.823Z,3.07
2017-08-17T15:05:41.000Z,4.07
2017-08-17T15:08:09.134Z,3.17
2017-08-17T15:10:37.274Z,3.13
2017-08-17T15:13:06.200Z,2.63
2017-08-17T15:15:34.322Z,3.33
2017-08-17T15:18:02.491Z,4.00
2017-08-17T15:20:30.604Z,3.13
2017-08-17T15:22:58.738Z,3.10
2017-08-17T15:25:27.678Z,4.60
2017-08-17T15:27:55.798Z,3.57
2017-08-17T15:30:24.694Z,5.53
2017-08-17T15:32:53.627Z,4.00
2017-08-17T15:35:21.766Z,4.20
2017-08-17T15:37:50.691Z,4.30
2017-08-17T15:40:18.828Z,4.70
2017-08-17T15:42:46.963Z,3.77
2017-08-17T15:45:15.121Z,4.50
2017-08-17T15:47:43.251Z,4.47
2017-08-17T15:50:11.405Z,3.97
2017-08-17T15:52:40.306Z,5.97
2017-08-17T15:55:08.438Z,4.43
2017-08-17T15:57:36.604Z,5.30
2017-08-17T16:00:04.749Z,3.47
2017-08-17T16:02:32.922Z,4.10
2017-08-17T16:05:01.066Z,3.83
2017-08-17T16:07:29.234Z,4.53
2017-08-17T16:09:57.348Z,4.10
2017-08-17T16:12:25.470Z,3.33
2017-08-17T16:14:54.399Z,4.40
2017-08-17T16:17:22.521Z,3.90
2017-08-17T16:19:50.659Z,2.80
2017-08-17T16:22:18.835Z,5.00
2017-08-17T16:24:46.966Z,4.00
2017-08-17T16:27:15.097Z,3.60
2017-08-17T16:29:43.254Z,3.10
2017-08-17T16:32:11.376Z,4.73
2017-08-17T16:34:39.531Z,3.07
2017-08-17T16:37:08.417Z,3.47
2017-08-17T16:39:37.367Z,4.77
2017-08-17T16:42:05.485Z,3.50
2017-08-17T16:44:33.605Z,4.03
2017-08-17T16:47:01.763Z,4.70
2017-08-17T16:49:29.905Z,3.40
2017-08-17T16:51:58.096Z,3.80
2017-08-17T16:54:26.226Z,4.50
2017-08-17T16:56:55.134Z,4.57
2017-08-17T16:59:23.303Z,5.00
2017-08-17T17:01:51.439Z,5.63
2017-08-17T17:04:19.608Z,6.60
2017-08-17T17:06:47.740Z,6.60
2017-08-17T17:09:15.918Z,6.07
2017-08-17T17:11:44.050Z,6.00
2017-08-17T17:14:12.192Z,5.00
2017-08-17T17:16:40.362Z,5.27
2017-08-17T17:19:08.570Z,4.93
2017-08-17T17:21:37.476Z,5.47
2017-08-17T17:24:05.636Z,6.90
2017-08-17T17:26:33.759Z,5.83
2017-08-17T17:29:01.930Z,5.70
2017-08-17T17:31:30.066Z,4.87
2017-08-17T17:33:58.201Z,5.53
2017-08-17T17:36:27.137Z,4.63
2017-08-17T17:38:55.270Z,4.30
2017-08-17T17:41:24.212Z,4.90
2017-08-17T17:43:52.400Z,5.27
2017-08-17T17:46:20.546Z,4.33
2017-08-17T17:48:48.717Z,4.17
2017-08-17T17:51:16.847Z,4.00
2017-08-17T17:53:44.979Z,4.03
2017-08-17T17:56:13.137Z,4.10
2017-08-17T17:58:41.279Z,5.00
2017-08-17T18:01:09.447Z,4.60
2017-08-17T18:03:37.624Z,3.80
2017-08-17T18:06:05.783Z,4.60
2017-08-17T18:08:33.958Z,4.30
2017-08-17T18:11:02.864Z,4.00
2017-08-17T18:13:31.042Z,4.23
2017-08-17T18:15:59.173Z,4.27
2017-08-17T18:18:27.306Z,4.13
2017-08-17T18:20:55.465Z,4.50
2017-08-17T18:23:23.594Z,4.43
2017-08-17T18:25:52.494Z,4.63
2017-08-17T18:28:21.413Z,4.40
2017-08-17T18:30:49.539Z,4.00
2017-08-17T18:33:17.719Z,4.77
2017-08-17T18:35:46.610Z,5.30
2017-08-17T18:38:15.502Z,4.10
2017-08-17T18:40:44.426Z,4.70
2017-08-17T18:43:13.347Z,4.03
2017-08-17T18:45:41.508Z,4.57
2017-08-17T18:48:09.637Z,4.70
2017-08-17T18:50:37.767Z,5.90
2017-08-17T18:53:05.950Z,6.60
2017-08-17T18:55:34.833Z,6.03
2017-08-17T18:58:02.953Z,6.57
2017-08-17T19:00:31.127Z,6.50
2017-08-17T19:02:59.274Z,6.50
2017-08-17T19:05:27.439Z,5.43
2017-08-17T19:07:56.329Z,6.50
2017-08-17T19:10:24.464Z,7.53
2017-08-17T19:12:52.637Z,6.67
2017-08-17T19:15:20.778Z,7.47
2017-08-17T19:17:48.921Z,6.73
2017-08-17T19:20:17.081Z,6.73
2017-08-17T19:22:45.977Z,6.07
2017-08-17T19:25:14.159Z,5.97
2017-08-17T19:27:42.973Z,5.17
2017-08-17T19:30:11.107Z,6.10
2017-08-17T19:32:40.033Z,6.57
2017-08-17T19:35:08.172Z,7.93
2017-08-17T19:37:36.321Z,7.77
2017-08-17T19:40:04.473Z,6.83
2017-08-17T19:42:33.427Z,7.47
2017-08-17T19:45:01.589Z,7.60
2017-08-17T19:47:29.707Z,7.47
2017-08-17T19:49:57.851Z,7.90
2017-08-17T19:52:26.037Z,7.13
2017-08-17T19:54:54.165Z,6.90
2017-08-17T19:57:22.343Z,7.90
2017-08-17T19:59:50.488Z,7.60
2017-08-17T20:02:19.391Z,8.90
2017-08-17T20:04:47.566Z,7.17
2017-08-17T20:07:15.694Z,6.67
2017-08-17T20:09:43.837Z,7.30
2017-08-17T20:12:12.012Z,7.37
2017-08-17T20:14:40.146Z,7.00
2017-08-17T20:17:08.315Z,7.07
2017-08-17T20:19:36.470Z,5.80
2017-08-17T20:22:04.659Z,6.83
2017-08-17T20:24:33.562Z,6.03
2017-08-17T20:27:01.687Z,7.57
2017-08-17T20:29:29.868Z,7.13
2017-08-17T20:31:57.993Z,6.77
2017-08-17T20:34:26.114Z,5.77
2017-08-17T20:36:54.293Z,6.00
2017-08-17T20:39:23.181Z,6.20
2017-08-17T20:41:52.069Z,7.80
2017-08-17T20:44:21.003Z,7.40
2017-08-17T20:46:49.121Z,6.77
2017-08-17T20:49:17.292Z,7.10
2017-08-17T20:51:45.413Z,6.20
2017-08-17T20:54:13.570Z,6.53
2017-08-17T20:56:41.707Z,7.20
2017-08-17T20:59:09.838Z,6.87
2017-08-17T21:01:38.106Z,7.70
2017-08-17T21:04:06.237Z,7.37
2017-08-17T21:06:35.175Z,6.57
2017-08-17T21:09:03.329Z,5.70
2017-08-17T21:11:31.497Z,7.33
2017-08-17T21:13:59.636Z,6.80
2017-08-17T21:16:28.538Z,6.77
2017-08-17T21:18:57.473Z,6.23
2017-08-17T21:21:25.610Z,5.63
2017-08-17T21:23:53.775Z,6.60
2017-08-17T21:26:21.907Z,5.73
2017-08-17T21:28:50.038Z,6.60
2017-08-17T21:31:18.203Z,6.33
2017-08-17T21:33:46.343Z,6.37
2017-08-17T21:36:14.471Z,6.87
2017-08-17T21:38:42.620Z,5.53
2017-08-17T21:41:10.741Z,6.17
2017-08-17T21:43:38.893Z,6.53
2017-08-17T21:46:07.031Z,6.53
2017-08-17T21:48:35.200Z,6.50
2017-08-17T21:51:03.336Z,6.40
2017-08-17T21:53:31.453Z,6.40
2017-08-17T21:55:59.623Z,5.70
2017-08-17T21:58:27.771Z,6.07
2017-08-17T22:00:56.705Z,5.07
2017-08-17T22:03:24.847Z,5.40
2017-08-17T22:05:52.983Z,5.83
2017-08-17T22:08:21.148Z,5.00
2017-08-17T22:10:49.282Z,5.33
2017-08-17T22:13:17.409Z,6.50
2017-08-17T22:15:46.340Z,5.33
2017-08-17T22:18:14.472Z,5.50
2017-08-17T22:20:43.369Z,6.60
2017-08-17T22:23:12.538Z,6.57
2017-08-17T22:25:40.653Z,6.57
2017-08-17T22:28:08.805Z,6.70
2017-08-17T22:30:36.967Z,6.90
2017-08-17T22:33:05.878Z,6.13
2017-08-17T22:35:34.049Z,5.70
2017-08-17T22:38:02.165Z,6.93
2017-08-17T22:40:30.290Z,5.73
2017-08-17T22:42:58.455Z,6.33
2017-08-17T22:45:26.573Z,6.53
2017-08-17T22:47:54.747Z,5.03
2017-08-17T22:50:22.876Z,6.70
2017-08-17T22:52:51.001Z,5.97
2017-08-17T22:55:19.163Z,5.03
2017-08-17T22:57:47.288Z,7.00
2017-08-17T23:00:15.418Z,6.30
2017-08-17T23:02:43.573Z,5.83
2017-08-17T23:05:11.710Z,7.50
2017-08-17T23:07:39.834Z,6.20
2017-08-17T23:10:07.994Z,5.90
2017-08-17T23:12:36.135Z,6.13
2017-08-17T23:15:04.285Z,6.10
2017-08-17T23:17:32.405Z,5.70
2017-08-17T23:20:00.569Z,6.27
2017-08-17T23:22:28.684Z,7.00
2017-08-17T23:24:57.572Z,7.10
2017-08-17T23:27:26.503Z,6.17
2017-08-17T23:29:54.638Z,6.33
2017-08-17T23:32:23.549Z,6.10
2017-08-17T23:34:51.673Z,5.70
2017-08-17T23:37:20.624Z,5.17
2017-08-17T23:39:48.748Z,6.03
2017-08-17T23:42:17.686Z,7.53
2017-08-17T23:44:45.804Z,6.57
2017-08-17T23:47:13.923Z,7.40
2017-08-17T23:49:42.103Z,7.47
2017-08-17T23:52:10.228Z,6.30
2017-08-17T23:54:39.146Z,5.90
2017-08-17T23:57:07.304Z,5.90
2017-08-17T23:59:35.430Z,5.53
